Terminal Aerodrome Forecast
Issued by NWS Upton, NY

Home | Current Version | Previous Version | Text Only | Print | Product List | Glossary On
Versions: 1 2 3 4 5 6 7 8 9 10 11 12 13 14 15 16 17 18 19 20 21 22 23 24 25 26 27 28 29 30 31 32 33 34 35
000
FTUS41 KOKX 272132 AAB
TAFISP
TAF AMD
KISP 272132Z 2722/2818 34005KT 6SM BR BKN010
     FM280000 VRB05KT 4SM BR OVC008
     FM280300 VRB03KT 1SM BR OVC006
     FM280600 VRB03KT 1/2SM FG OVC006
     FM280900 VRB03KT 1/2SM FG OVC004
     FM281500 06003KT 2SM BR OVC007=

USA.gov is the U.S. government's official web portal to all federal, state and local government web resources and services.